Main page
METAR-TAF:

METAR-TAF

Airports :

Turkmenabat Airport

Türkmenabat, Turkmenistan

latitude: 39-05-00N, longitude: 063-36-48E, elevation: 192 m

Current weather observation

The report was made 21 minutes ago, at 22:00 UTC
Calm wind
Temperature 1°C
Humidity 100%
Pressure 1020 hPa
Visibility: 0200 m
fog

METAR: UTAV 102200Z 00000KT 0200 R13/0650N FG VV001 01/01 Q1020 R13/CLRD70 NOSIG

Time: 03:21 (22:21 UTC)

Forecast

The report was made 5 hours and 51 minutes ago, at 16:30 UTC
Forecast valid from 10 at 17 UTC to 11 at 18 UTC
Wind 12 kt from the Southeast
Visibility: 2000 m
Overcast at a height of 500 ft
mist
Temporary
from 10 at 17 UTC to 11 at 04 UTC
Wind 4 kt from variable directions
Visibility: 0200 m
at a height of 100 ft
fog, light drizzle
Becoming
from 11 at 04 UTC to 11 at 06 UTC
Wind 14 kt from the East
Visibility: 5000 m
Broken clouds at a height of 2000 ft

TAF: UTAV 101630Z 1017/1118 14012KT 2000 BR OVC005 TEMPO 1017/1104 VRB04KT 0200 FG -DZ VV001 BECMG 1104/1106 09014KT 5000 BKN020

Weather observations and forecasts of more than 4000 airports (METAR and TAF reports).

The available stations are represented by yellow and red dots on the map.

Hover mouse over dot to see the name of the station.

Then click to see weather observations and forecasts.

To change the map : click on the green buttons with a black cross to zoom in, on the green button with a dash to zoom out, or on the green arrows for adjacent maps.


METAR-TAF: